2WI0 weather

Bender's Airport
Rothschild, Wisconsin, United States

Public forecast

Using degrees Fahrenheit for public forecast. Weather courtesy of forecast.io.

Closest aviation weather report (METAR) to Bender's Airport

Closest report is Wausau Downtown Airport, 4.6 nm (8.4 km) NNW. Retrieved 2020/02/18 14:54 UTC (40 minutes ago):

KAUW 181454Z AUTO 31013KT 10SM OVC024 M07/M11 A3003 RMK AO2 SLP191 60000 T10671106 51044

Closest aviation forecast (TAF) to Bender's Airport

Closest forecast is Wausau Downtown Airport, 4.6 nm (8.4 km) NNW. Retrieved 2020/02/18 12:27 UTC (3 hours ago):

TAF KAUW 181125Z 1812/1912 32013G20KT P6SM -SHSN BKN015 BKN025 TEMPO 1813/1815 SCT025 FM181500 30014G23KT P6SM BKN020 BKN035 FM182000 29014G23KT P6SM BKN035 FM190000 30010G16KT P6SM SCT030 FM190200 30007KT P6SM SKC